sensor_id;sensor_type;location;lat;lon;timestamp;P1;durP1;ratioP1;P2;durP2;ratioP2
76357;SDS011;65185;21.060;105.826;2022-11-20T00:01:24;28.50;;;16.08;;
76357;SDS011;65185;21.060;105.826;2022-11-20T00:03:52;34.75;;;17.17;;
76357;SDS011;65185;21.060;105.826;2022-11-20T00:06:20;27.35;;;14.23;;
76357;SDS011;65185;21.060;105.826;2022-11-20T00:08:48;27.05;;;15.13;;
76357;SDS011;65185;21.060;105.826;2022-11-20T00:11:17;33.00;;;17.25;;
76357;SDS011;65185;21.060;105.826;2022-11-20T00:13:46;29.23;;;16.60;;
76357;SDS011;65185;21.060;105.826;2022-11-20T00:16:16;29.77;;;16.95;;
76357;SDS011;65185;21.060;105.826;2022-11-20T00:18:45;29.55;;;16.05;;
76357;SDS011;65185;21.060;105.826;2022-11-20T00:21:13;29.23;;;15.85;;
76357;SDS011;65185;21.060;105.826;2022-11-20T00:23:43;26.38;;;14.93;;
76357;SDS011;65185;21.060;105.826;2022-11-20T00:26:11;30.90;;;15.23;;
76357;SDS011;65185;21.060;105.826;2022-11-20T00:28:39;29.67;;;15.70;;
76357;SDS011;65185;21.060;105.826;2022-11-20T00:31:08;27.42;;;14.73;;
76357;SDS011;65185;21.060;105.826;2022-11-20T00:33:40;30.60;;;15.52;;
76357;SDS011;65185;21.060;105.826;2022-11-20T00:36:08;27.52;;;14.18;;
76357;SDS011;65185;21.060;105.826;2022-11-20T00:38:46;26.52;;;14.35;;
76357;SDS011;65185;21.060;105.826;2022-11-20T00:41:17;28.13;;;14.98;;
76357;SDS011;65185;21.060;105.826;2022-11-20T00:43:44;32.67;;;15.43;;
76357;SDS011;65185;21.060;105.826;2022-11-20T00:46:14;25.38;;;14.18;;
76357;SDS011;65185;21.060;105.826;2022-11-20T00:48:43;40.28;;;16.13;;
76357;SDS011;65185;21.060;105.826;2022-11-20T00:51:12;30.95;;;15.88;;
76357;SDS011;65185;21.060;105.826;2022-11-20T00:56:07;33.25;;;17.58;;
76357;SDS011;65185;21.060;105.826;2022-11-20T00:58:40;57.03;;;17.90;;
76357;SDS011;65185;21.060;105.826;2022-11-20T01:01:09;34.00;;;17.52;;
76357;SDS011;65185;21.060;105.826;2022-11-20T01:03:39;33.70;;;18.63;;
76357;SDS011;65185;21.060;105.826;2022-11-20T01:08:36;39.00;;;20.08;;
76357;SDS011;65185;21.060;105.826;2022-11-20T01:11:07;39.70;;;21.40;;
76357;SDS011;65185;21.060;105.826;2022-11-20T01:13:36;48.72;;;22.88;;
76357;SDS011;65185;21.060;105.826;2022-11-20T01:18:42;42.05;;;22.88;;
76357;SDS011;65185;21.060;105.826;2022-11-20T01:21:12;48.50;;;23.63;;
76357;SDS011;65185;21.060;105.826;2022-11-20T01:23:43;41.95;;;23.48;;
76357;SDS011;65185;21.060;105.826;2022-11-20T01:26:12;40.10;;;22.95;;
76357;SDS011;65185;21.060;105.826;2022-11-20T01:28:41;39.47;;;22.10;;
76357;SDS011;65185;21.060;105.826;2022-11-20T01:31:14;46.55;;;25.38;;
76357;SDS011;65185;21.060;105.826;2022-11-20T01:33:42;43.22;;;23.15;;
76357;SDS011;65185;21.060;105.826;2022-11-20T01:36:10;50.50;;;26.10;;
76357;SDS011;65185;21.060;105.826;2022-11-20T01:38:38;48.15;;;26.48;;
76357;SDS011;65185;21.060;105.826;2022-11-20T01:41:05;44.17;;;26.25;;
76357;SDS011;65185;21.060;105.826;2022-11-20T01:43:33;46.22;;;24.70;;
76357;SDS011;65185;21.060;105.826;2022-11-20T01:46:04;44.67;;;23.27;;
76357;SDS011;65185;21.060;105.826;2022-11-20T01:51:05;40.03;;;21.30;;
76357;SDS011;65185;21.060;105.826;2022-11-20T01:53:39;40.08;;;20.50;;
76357;SDS011;65185;21.060;105.826;2022-11-20T01:56:08;37.80;;;21.80;;
76357;SDS011;65185;21.060;105.826;2022-11-20T01:58:40;36.33;;;20.00;;
76357;SDS011;65185;21.060;105.826;2022-11-20T02:03:40;40.05;;;22.58;;
76357;SDS011;65185;21.060;105.826;2022-11-20T02:06:24;37.70;;;20.60;;
76357;SDS011;65185;21.060;105.826;2022-11-20T02:08:55;44.92;;;23.20;;
76357;SDS011;65185;21.060;105.826;2022-11-20T02:11:22;46.00;;;22.15;;
76357;SDS011;65185;21.060;105.826;2022-11-20T02:13:49;36.30;;;20.85;;
76357;SDS011;65185;21.060;105.826;2022-11-20T02:16:24;36.08;;;19.63;;
76357;SDS011;65185;21.060;105.826;2022-11-20T02:18:54;39.65;;;21.35;;
76357;SDS011;65185;21.060;105.826;2022-11-20T02:21:56;37.70;;;21.15;;
76357;SDS011;65185;21.060;105.826;2022-11-20T02:24:22;37.28;;;20.65;;
76357;SDS011;65185;21.060;105.826;2022-11-20T02:29:37;36.47;;;20.90;;
76357;SDS011;65185;21.060;105.826;2022-11-20T02:32:06;44.42;;;21.55;;
76357;SDS011;65185;21.060;105.826;2022-11-20T02:34:44;43.10;;;23.33;;
76357;SDS011;65185;21.060;105.826;2022-11-20T02:37:10;40.42;;;20.58;;
76357;SDS011;65185;21.060;105.826;2022-11-20T02:39:38;42.25;;;21.65;;
76357;SDS011;65185;21.060;105.826;2022-11-20T02:42:06;37.53;;;20.90;;
76357;SDS011;65185;21.060;105.826;2022-11-20T02:44:32;41.38;;;23.40;;
76357;SDS011;65185;21.060;105.826;2022-11-20T02:46:59;34.58;;;20.20;;
76357;SDS011;65185;21.060;105.826;2022-11-20T02:49:26;39.08;;;20.45;;
76357;SDS011;65185;21.060;105.826;2022-11-20T02:51:53;43.40;;;20.92;;
76357;SDS011;65185;21.060;105.826;2022-11-20T02:54:20;36.38;;;19.75;;
76357;SDS011;65185;21.060;105.826;2022-11-20T02:56:46;33.85;;;19.55;;
76357;SDS011;65185;21.060;105.826;2022-11-20T02:59:13;39.55;;;20.73;;
76357;SDS011;65185;21.060;105.826;2022-11-20T03:01:40;37.55;;;21.08;;
76357;SDS011;65185;21.060;105.826;2022-11-20T03:04:07;41.22;;;20.38;;
76357;SDS011;65185;21.060;105.826;2022-11-20T03:06:34;39.80;;;21.10;;
76357;SDS011;65185;21.060;105.826;2022-11-20T03:09:02;35.63;;;20.08;;
76357;SDS011;65185;21.060;105.826;2022-11-20T03:11:29;39.95;;;21.88;;
76357;SDS011;65185;21.060;105.826;2022-11-20T03:13:55;39.90;;;21.67;;
76357;SDS011;65185;21.060;105.826;2022-11-20T03:16:23;32.83;;;19.75;;
76357;SDS011;65185;21.060;105.826;2022-11-20T03:18:51;34.33;;;19.85;;
76357;SDS011;65185;21.060;105.826;2022-11-20T03:23:45;35.38;;;18.52;;
76357;SDS011;65185;21.060;105.826;2022-11-20T03:26:19;32.75;;;17.90;;
76357;SDS011;65185;21.060;105.826;2022-11-20T03:28:48;30.27;;;18.88;;
76357;SDS011;65185;21.060;105.826;2022-11-20T03:31:17;31.38;;;18.90;;
76357;SDS011;65185;21.060;105.826;2022-11-20T03:33:46;38.50;;;19.88;;
76357;SDS011;65185;21.060;105.826;2022-11-20T03:36:13;38.83;;;20.17;;
76357;SDS011;65185;21.060;105.826;2022-11-20T03:41:16;36.25;;;19.27;;
76357;SDS011;65185;21.060;105.826;2022-11-20T03:43:52;39.45;;;18.83;;
76357;SDS011;65185;21.060;105.826;2022-11-20T03:46:24;35.17;;;19.08;;
76357;SDS011;65185;21.060;105.826;2022-11-20T03:48:51;34.65;;;18.58;;
76357;SDS011;65185;21.060;105.826;2022-11-20T03:51:22;30.95;;;18.40;;
76357;SDS011;65185;21.060;105.826;2022-11-20T03:53:58;29.02;;;17.08;;
76357;SDS011;65185;21.060;105.826;2022-11-20T03:56:31;38.60;;;19.17;;
76357;SDS011;65185;21.060;105.826;2022-11-20T03:58:59;33.17;;;18.40;;
76357;SDS011;65185;21.060;105.826;2022-11-20T04:01:30;33.03;;;17.73;;
76357;SDS011;65185;21.060;105.826;2022-11-20T04:03:58;32.35;;;18.30;;
76357;SDS011;65185;21.060;105.826;2022-11-20T04:06:27;32.45;;;18.23;;
76357;SDS011;65185;21.060;105.826;2022-11-20T04:08:56;29.27;;;18.55;;
76357;SDS011;65185;21.060;105.826;2022-11-20T04:11:31;32.88;;;16.85;;
76357;SDS011;65185;21.060;105.826;2022-11-20T04:14:00;30.15;;;18.02;;
76357;SDS011;65185;21.060;105.826;2022-11-20T04:18:58;34.75;;;18.00;;
76357;SDS011;65185;21.060;105.826;2022-11-20T04:21:26;30.42;;;18.08;;
76357;SDS011;65185;21.060;105.826;2022-11-20T04:23:54;34.70;;;19.15;;
76357;SDS011;65185;21.060;105.826;2022-11-20T04:26:22;30.15;;;18.52;;
76357;SDS011;65185;21.060;105.826;2022-11-20T04:28:50;49.50;;;24.50;;
76357;SDS011;65185;21.060;105.826;2022-11-20T04:31:19;38.25;;;22.85;;
76357;SDS011;65185;21.060;105.826;2022-11-20T04:33:47;41.92;;;23.75;;
76357;SDS011;65185;21.060;105.826;2022-11-20T04:36:15;33.03;;;21.60;;
76357;SDS011;65185;21.060;105.826;2022-11-20T04:38:44;34.88;;;21.38;;
76357;SDS011;65185;21.060;105.826;2022-11-20T04:41:16;38.28;;;23.15;;
76357;SDS011;65185;21.060;105.826;2022-11-20T04:43:51;36.25;;;21.95;;
76357;SDS011;65185;21.060;105.826;2022-11-20T04:46:25;34.05;;;20.98;;
76357;SDS011;65185;21.060;105.826;2022-11-20T04:48:53;30.33;;;19.13;;
76357;SDS011;65185;21.060;105.826;2022-11-20T04:51:23;44.17;;;24.88;;
76357;SDS011;65185;21.060;105.826;2022-11-20T04:53:50;44.75;;;27.67;;
76357;SDS011;65185;21.060;105.826;2022-11-20T04:56:19;43.78;;;26.05;;
76357;SDS011;65185;21.060;105.826;2022-11-20T04:58:46;36.38;;;22.38;;
76357;SDS011;65185;21.060;105.826;2022-11-20T05:01:14;40.38;;;23.95;;
76357;SDS011;65185;21.060;105.826;2022-11-20T05:03:48;35.25;;;23.38;;
76357;SDS011;65185;21.060;105.826;2022-11-20T05:06:16;52.05;;;32.78;;
76357;SDS011;65185;21.060;105.826;2022-11-20T05:08:44;55.70;;;34.75;;
76357;SDS011;65185;21.060;105.826;2022-11-20T05:11:12;59.92;;;39.33;;
76357;SDS011;65185;21.060;105.826;2022-11-20T05:13:40;56.75;;;35.70;;
76357;SDS011;65185;21.060;105.826;2022-11-20T05:16:14;50.38;;;30.80;;
76357;SDS011;65185;21.060;105.826;2022-11-20T05:18:42;44.95;;;29.73;;
76357;SDS011;65185;21.060;105.826;2022-11-20T05:21:10;52.42;;;31.85;;
76357;SDS011;65185;21.060;105.826;2022-11-20T05:23:38;56.20;;;32.00;;
76357;SDS011;65185;21.060;105.826;2022-11-20T05:26:05;62.47;;;40.58;;
76357;SDS011;65185;21.060;105.826;2022-11-20T05:28:33;61.47;;;42.15;;
76357;SDS011;65185;21.060;105.826;2022-11-20T05:31:04;53.50;;;34.83;;
76357;SDS011;65185;21.060;105.826;2022-11-20T05:33:35;58.95;;;35.75;;
76357;SDS011;65185;21.060;105.826;2022-11-20T05:36:02;56.78;;;36.30;;
76357;SDS011;65185;21.060;105.826;2022-11-20T05:38:29;51.10;;;32.25;;
76357;SDS011;65185;21.060;105.826;2022-11-20T05:43:52;58.40;;;35.47;;
76357;SDS011;65185;21.060;105.826;2022-11-20T05:46:20;55.42;;;34.75;;
76357;SDS011;65185;21.060;105.826;2022-11-20T05:48:47;53.20;;;32.28;;
76357;SDS011;65185;21.060;105.826;2022-11-20T05:51:14;57.22;;;35.25;;
76357;SDS011;65185;21.060;105.826;2022-11-20T05:53:43;59.05;;;35.97;;
76357;SDS011;65185;21.060;105.826;2022-11-20T05:56:11;54.65;;;32.25;;
76357;SDS011;65185;21.060;105.826;2022-11-20T06:01:10;45.85;;;27.58;;
76357;SDS011;65185;21.060;105.826;2022-11-20T06:03:41;42.03;;;25.38;;
76357;SDS011;65185;21.060;105.826;2022-11-20T06:06:11;38.67;;;23.77;;
76357;SDS011;65185;21.060;105.826;2022-11-20T06:08:38;41.28;;;24.23;;
76357;SDS011;65185;21.060;105.826;2022-11-20T06:11:06;42.63;;;23.75;;
76357;SDS011;65185;21.060;105.826;2022-11-20T06:13:34;37.40;;;23.25;;
76357;SDS011;65185;21.060;105.826;2022-11-20T06:16:01;37.25;;;23.95;;
76357;SDS011;65185;21.060;105.826;2022-11-20T06:18:28;43.42;;;26.58;;
76357;SDS011;65185;21.060;105.826;2022-11-20T06:23:31;41.35;;;24.35;;
76357;SDS011;65185;21.060;105.826;2022-11-20T06:26:41;37.90;;;23.40;;
76357;SDS011;65185;21.060;105.826;2022-11-20T06:28:50;39.53;;;23.23;;
76357;SDS011;65185;21.060;105.826;2022-11-20T06:31:18;37.50;;;23.50;;
76357;SDS011;65185;21.060;105.826;2022-11-20T06:33:49;32.17;;;21.92;;
76357;SDS011;65185;21.060;105.826;2022-11-20T06:36:17;36.22;;;22.55;;
76357;SDS011;65185;21.060;105.826;2022-11-20T06:41:13;32.65;;;21.45;;
76357;SDS011;65185;21.060;105.826;2022-11-20T06:43:41;38.70;;;21.95;;
76357;SDS011;65185;21.060;105.826;2022-11-20T06:46:08;36.88;;;21.63;;
76357;SDS011;65185;21.060;105.826;2022-11-20T06:48:37;33.88;;;21.67;;
76357;SDS011;65185;21.060;105.826;2022-11-20T06:51:04;39.20;;;22.08;;
76357;SDS011;65185;21.060;105.826;2022-11-20T06:53:32;37.58;;;20.90;;
76357;SDS011;65185;21.060;105.826;2022-11-20T06:55:59;37.13;;;21.17;;
76357;SDS011;65185;21.060;105.826;2022-11-20T06:58:26;33.13;;;20.42;;
76357;SDS011;65185;21.060;105.826;2022-11-20T07:00:57;34.65;;;20.48;;
76357;SDS011;65185;21.060;105.826;2022-11-20T07:03:27;35.15;;;19.88;;
76357;SDS011;65185;21.060;105.826;2022-11-20T07:05:54;36.90;;;20.75;;
76357;SDS011;65185;21.060;105.826;2022-11-20T07:08:22;36.97;;;20.60;;
76357;SDS011;65185;21.060;105.826;2022-11-20T07:10:49;31.75;;;18.73;;
76357;SDS011;65185;21.060;105.826;2022-11-20T07:13:16;32.20;;;20.85;;
76357;SDS011;65185;21.060;105.826;2022-11-20T07:18:21;34.25;;;20.02;;
76357;SDS011;65185;21.060;105.826;2022-11-20T07:20:47;28.92;;;19.35;;
76357;SDS011;65185;21.060;105.826;2022-11-20T07:23:14;33.92;;;19.25;;
76357;SDS011;65185;21.060;105.826;2022-11-20T07:25:40;33.28;;;18.98;;
76357;SDS011;65185;21.060;105.826;2022-11-20T07:28:07;34.60;;;19.48;;
76357;SDS011;65185;21.060;105.826;2022-11-20T07:30:35;28.00;;;20.20;;
76357;SDS011;65185;21.060;105.826;2022-11-20T07:33:03;34.97;;;20.05;;
76357;SDS011;65185;21.060;105.826;2022-11-20T07:35:29;29.30;;;18.48;;
76357;SDS011;65185;21.060;105.826;2022-11-20T07:37:56;33.38;;;21.38;;
76357;SDS011;65185;21.060;105.826;2022-11-20T07:40:22;30.75;;;19.38;;
76357;SDS011;65185;21.060;105.826;2022-11-20T07:42:49;31.98;;;20.67;;
76357;SDS011;65185;21.060;105.826;2022-11-20T07:45:18;33.92;;;20.83;;
76357;SDS011;65185;21.060;105.826;2022-11-20T07:47:45;34.60;;;22.60;;
76357;SDS011;65185;21.060;105.826;2022-11-20T07:50:12;35.15;;;21.38;;
76357;SDS011;65185;21.060;105.826;2022-11-20T07:52:40;31.90;;;20.60;;
76357;SDS011;65185;21.060;105.826;2022-11-20T07:55:07;34.47;;;22.10;;
76357;SDS011;65185;21.060;105.826;2022-11-20T07:57:34;33.97;;;22.02;;
76357;SDS011;65185;21.060;105.826;2022-11-20T08:00:02;39.70;;;22.95;;
76357;SDS011;65185;21.060;105.826;2022-11-20T08:02:30;39.42;;;25.15;;
76357;SDS011;65185;21.060;105.826;2022-11-20T08:04:56;46.78;;;27.10;;
76357;SDS011;65185;21.060;105.826;2022-11-20T08:07:23;43.38;;;27.50;;
76357;SDS011;65185;21.060;105.826;2022-11-20T08:09:49;39.05;;;24.42;;
76357;SDS011;65185;21.060;105.826;2022-11-20T08:12:19;42.25;;;25.45;;
76357;SDS011;65185;21.060;105.826;2022-11-20T08:15:05;35.92;;;25.05;;
76357;SDS011;65185;21.060;105.826;2022-11-20T08:17:32;37.90;;;25.58;;
76357;SDS011;65185;21.060;105.826;2022-11-20T08:19:59;35.53;;;23.25;;
76357;SDS011;65185;21.060;105.826;2022-11-20T08:22:25;39.42;;;24.52;;
76357;SDS011;65185;21.060;105.826;2022-11-20T08:24:52;38.40;;;25.70;;
76357;SDS011;65185;21.060;105.826;2022-11-20T08:27:18;38.83;;;24.70;;
76357;SDS011;65185;21.060;105.826;2022-11-20T08:29:45;39.90;;;23.40;;
76357;SDS011;65185;21.060;105.826;2022-11-20T08:32:12;42.92;;;27.13;;
76357;SDS011;65185;21.060;105.826;2022-11-20T08:34:38;39.17;;;25.17;;
76357;SDS011;65185;21.060;105.826;2022-11-20T08:37:05;41.20;;;27.27;;
76357;SDS011;65185;21.060;105.826;2022-11-20T08:39:31;42.08;;;27.17;;
76357;SDS011;65185;21.060;105.826;2022-11-20T08:41:58;43.67;;;29.90;;
76357;SDS011;65185;21.060;105.826;2022-11-20T08:44:24;42.70;;;28.95;;
76357;SDS011;65185;21.060;105.826;2022-11-20T08:46:51;46.40;;;27.50;;
76357;SDS011;65185;21.060;105.826;2022-11-20T08:49:17;43.45;;;25.35;;
76357;SDS011;65185;21.060;105.826;2022-11-20T08:51:44;46.42;;;26.52;;
76357;SDS011;65185;21.060;105.826;2022-11-20T08:54:13;41.85;;;26.23;;
76357;SDS011;65185;21.060;105.826;2022-11-20T08:56:40;45.83;;;27.42;;
76357;SDS011;65185;21.060;105.826;2022-11-20T08:59:07;43.55;;;27.98;;
76357;SDS011;65185;21.060;105.826;2022-11-20T09:01:33;42.00;;;27.73;;
76357;SDS011;65185;21.060;105.826;2022-11-20T09:04:00;42.08;;;27.33;;
76357;SDS011;65185;21.060;105.826;2022-11-20T09:06:26;43.17;;;26.35;;
76357;SDS011;65185;21.060;105.826;2022-11-20T09:08:53;34.33;;;23.42;;
76357;SDS011;65185;21.060;105.826;2022-11-20T09:11:21;40.97;;;26.23;;
76357;SDS011;65185;21.060;105.826;2022-11-20T09:13:47;45.85;;;27.70;;
76357;SDS011;65185;21.060;105.826;2022-11-20T09:16:14;43.45;;;25.70;;
76357;SDS011;65185;21.060;105.826;2022-11-20T09:18:41;44.63;;;26.73;;
76357;SDS011;65185;21.060;105.826;2022-11-20T09:21:11;41.85;;;26.92;;
76357;SDS011;65185;21.060;105.826;2022-11-20T09:23:39;39.90;;;25.98;;
76357;SDS011;65185;21.060;105.826;2022-11-20T09:26:12;44.58;;;27.67;;
76357;SDS011;65185;21.060;105.826;2022-11-20T09:28:40;42.58;;;27.52;;
76357;SDS011;65185;21.060;105.826;2022-11-20T09:31:17;49.72;;;31.38;;
76357;SDS011;65185;21.060;105.826;2022-11-20T09:33:51;44.42;;;30.15;;
76357;SDS011;65185;21.060;105.826;2022-11-20T09:36:18;50.17;;;30.92;;
76357;SDS011;65185;21.060;105.826;2022-11-20T09:38:47;51.80;;;33.30;;
76357;SDS011;65185;21.060;105.826;2022-11-20T09:47:03;55.47;;;34.03;;
76357;SDS011;65185;21.060;105.826;2022-11-20T09:55:29;47.47;;;30.35;;
76357;SDS011;65185;21.060;105.826;2022-11-20T09:57:56;49.92;;;31.52;;
76357;SDS011;65185;21.060;105.826;2022-11-20T10:00:25;42.92;;;29.40;;
76357;SDS011;65185;21.060;105.826;2022-11-20T10:03:04;46.50;;;32.15;;
76357;SDS011;65185;21.060;105.826;2022-11-20T10:05:46;41.50;;;27.63;;
76357;SDS011;65185;21.060;105.826;2022-11-20T10:08:23;51.17;;;33.20;;
76357;SDS011;65185;21.060;105.826;2022-11-20T10:11:04;46.42;;;31.63;;
76357;SDS011;65185;21.060;105.826;2022-11-20T10:32:40;59.15;;;37.35;;
76357;SDS011;65185;21.060;105.826;2022-11-20T10:35:16;66.88;;;42.45;;
76357;SDS011;65185;21.060;105.826;2022-11-20T10:37:58;67.40;;;43.08;;
76357;SDS011;65185;21.060;105.826;2022-11-20T10:48:14;77.05;;;48.42;;
76357;SDS011;65185;21.060;105.826;2022-11-20T10:56:05;83.45;;;51.42;;
76357;SDS011;65185;21.060;105.826;2022-11-20T10:58:47;84.55;;;52.25;;
76357;SDS011;65185;21.060;105.826;2022-11-20T11:01:39;84.70;;;52.10;;
76357;SDS011;65185;21.060;105.826;2022-11-20T11:07:39;87.50;;;53.92;;
76357;SDS011;65185;21.060;105.826;2022-11-20T11:10:14;95.03;;;58.05;;
76357;SDS011;65185;21.060;105.826;2022-11-20T11:12:47;95.18;;;58.80;;
76357;SDS011;65185;21.060;105.826;2022-11-20T11:18:09;101.68;;;63.05;;
76357;SDS011;65185;21.060;105.826;2022-11-20T11:20:37;104.50;;;64.22;;
76357;SDS011;65185;21.060;105.826;2022-11-20T11:23:04;114.93;;;70.95;;
76357;SDS011;65185;21.060;105.826;2022-11-20T11:25:32;121.22;;;75.10;;
76357;SDS011;65185;21.060;105.826;2022-11-20T11:28:04;120.32;;;72.00;;
76357;SDS011;65185;21.060;105.826;2022-11-20T11:30:46;116.55;;;69.80;;
76357;SDS011;65185;21.060;105.826;2022-11-20T11:33:19;105.05;;;64.93;;
76357;SDS011;65185;21.060;105.826;2022-11-20T11:35:49;123.43;;;71.88;;
76357;SDS011;65185;21.060;105.826;2022-11-20T11:38:34;114.72;;;69.95;;
76357;SDS011;65185;21.060;105.826;2022-11-20T11:41:12;126.13;;;76.47;;
76357;SDS011;65185;21.060;105.826;2022-11-20T11:44:30;126.93;;;74.60;;
76357;SDS011;65185;21.060;105.826;2022-11-20T11:47:26;122.00;;;70.95;;
76357;SDS011;65185;21.060;105.826;2022-11-20T11:53:17;128.10;;;75.75;;
76357;SDS011;65185;21.060;105.826;2022-11-20T11:58:32;139.35;;;82.97;;
76357;SDS011;65185;21.060;105.826;2022-11-20T12:01:02;143.57;;;81.53;;
76357;SDS011;65185;21.060;105.826;2022-11-20T12:06:36;127.63;;;75.60;;
76357;SDS011;65185;21.060;105.826;2022-11-20T12:09:10;138.70;;;79.68;;
76357;SDS011;65185;21.060;105.826;2022-11-20T12:11:49;137.43;;;79.32;;
76357;SDS011;65185;21.060;105.826;2022-11-20T12:14:30;142.77;;;88.07;;
76357;SDS011;65185;21.060;105.826;2022-11-20T12:17:12;152.52;;;84.03;;
76357;SDS011;65185;21.060;105.826;2022-11-20T12:19:40;150.27;;;83.88;;
76357;SDS011;65185;21.060;105.826;2022-11-20T12:33:36;157.57;;;88.28;;
76357;SDS011;65185;21.060;105.826;2022-11-20T12:47:47;154.52;;;86.30;;
76357;SDS011;65185;21.060;105.826;2022-11-20T12:58:44;140.00;;;76.53;;
76357;SDS011;65185;21.060;105.826;2022-11-20T13:04:39;122.78;;;68.40;;
76357;SDS011;65185;21.060;105.826;2022-11-20T13:07:33;126.93;;;68.57;;
76357;SDS011;65185;21.060;105.826;2022-11-20T13:10:02;120.15;;;67.70;;
76357;SDS011;65185;21.060;105.826;2022-11-20T13:20:23;94.05;;;51.92;;
76357;SDS011;65185;21.060;105.826;2022-11-20T13:22:51;94.75;;;56.03;;
76357;SDS011;65185;21.060;105.826;2022-11-20T13:25:30;92.88;;;50.75;;
76357;SDS011;65185;21.060;105.826;2022-11-20T13:28:04;86.95;;;48.17;;
76357;SDS011;65185;21.060;105.826;2022-11-20T13:30:31;84.95;;;48.13;;
76357;SDS011;65185;21.060;105.826;2022-11-20T13:33:01;81.45;;;46.70;;
76357;SDS011;65185;21.060;105.826;2022-11-20T13:35:31;84.22;;;46.58;;
76357;SDS011;65185;21.060;105.826;2022-11-20T13:38:20;81.53;;;46.17;;
76357;SDS011;65185;21.060;105.826;2022-11-20T13:46:04;78.25;;;46.67;;
76357;SDS011;65185;21.060;105.826;2022-11-20T13:48:32;84.65;;;48.15;;
76357;SDS011;65185;21.060;105.826;2022-11-20T13:59:35;70.15;;;38.95;;
76357;SDS011;65185;21.060;105.826;2022-11-20T14:02:16;67.60;;;38.55;;
76357;SDS011;65185;21.060;105.826;2022-11-20T14:07:13;71.55;;;36.92;;
76357;SDS011;65185;21.060;105.826;2022-11-20T14:09:51;70.68;;;37.00;;
76357;SDS011;65185;21.060;105.826;2022-11-20T14:12:20;70.03;;;37.13;;
76357;SDS011;65185;21.060;105.826;2022-11-20T14:14:52;64.60;;;36.20;;
76357;SDS011;65185;21.060;105.826;2022-11-20T14:17:21;66.45;;;36.78;;
76357;SDS011;65185;21.060;105.826;2022-11-20T14:19:51;68.20;;;39.70;;
76357;SDS011;65185;21.060;105.826;2022-11-20T14:25:00;68.47;;;42.30;;
76357;SDS011;65185;21.060;105.826;2022-11-20T14:27:48;70.53;;;37.85;;
76357;SDS011;65185;21.060;105.826;2022-11-20T14:30:19;66.22;;;39.65;;
76357;SDS011;65185;21.060;105.826;2022-11-20T14:33:03;69.85;;;39.08;;
76357;SDS011;65185;21.060;105.826;2022-11-20T14:35:33;71.85;;;40.47;;
76357;SDS011;65185;21.060;105.826;2022-11-20T14:38:02;70.07;;;43.08;;
76357;SDS011;65185;21.060;105.826;2022-11-20T14:40:31;82.03;;;46.80;;
76357;SDS011;65185;21.060;105.826;2022-11-20T14:43:01;81.55;;;43.25;;
76357;SDS011;65185;21.060;105.826;2022-11-20T14:45:41;83.57;;;48.38;;
76357;SDS011;65185;21.060;105.826;2022-11-20T14:48:08;72.30;;;44.30;;
76357;SDS011;65185;21.060;105.826;2022-11-20T14:50:37;82.82;;;47.08;;
76357;SDS011;65185;21.060;105.826;2022-11-20T14:53:04;84.97;;;48.13;;
76357;SDS011;65185;21.060;105.826;2022-11-20T14:55:32;81.97;;;48.88;;
76357;SDS011;65185;21.060;105.826;2022-11-20T15:03:35;78.70;;;48.78;;
76357;SDS011;65185;21.060;105.826;2022-11-20T15:06:04;86.15;;;51.85;;
76357;SDS011;65185;21.060;105.826;2022-11-20T15:08:32;83.88;;;50.40;;
76357;SDS011;65185;21.060;105.826;2022-11-20T15:10:59;85.90;;;51.13;;
76357;SDS011;65185;21.060;105.826;2022-11-20T15:13:36;86.72;;;52.15;;
76357;SDS011;65185;21.060;105.826;2022-11-20T15:16:08;89.40;;;53.55;;
76357;SDS011;65185;21.060;105.826;2022-11-20T15:18:43;83.50;;;50.75;;
76357;SDS011;65185;21.060;105.826;2022-11-20T15:21:14;85.53;;;51.83;;
76357;SDS011;65185;21.060;105.826;2022-11-20T15:23:42;93.63;;;55.70;;
76357;SDS011;65185;21.060;105.826;2022-11-20T15:26:09;89.43;;;52.55;;
76357;SDS011;65185;21.060;105.826;2022-11-20T15:28:42;88.63;;;53.55;;
76357;SDS011;65185;21.060;105.826;2022-11-20T15:31:13;91.32;;;55.10;;
76357;SDS011;65185;21.060;105.826;2022-11-20T15:33:41;88.68;;;54.10;;
76357;SDS011;65185;21.060;105.826;2022-11-20T15:36:08;89.60;;;53.53;;
76357;SDS011;65185;21.060;105.826;2022-11-20T15:38:35;88.25;;;53.60;;
76357;SDS011;65185;21.060;105.826;2022-11-20T15:41:02;94.95;;;58.45;;
76357;SDS011;65185;21.060;105.826;2022-11-20T15:43:29;90.93;;;56.00;;
76357;SDS011;65185;21.060;105.826;2022-11-20T15:46:13;94.45;;;56.55;;
76357;SDS011;65185;21.060;105.826;2022-11-20T15:48:42;91.68;;;57.75;;
76357;SDS011;65185;21.060;105.826;2022-11-20T15:53:43;100.80;;;61.40;;
76357;SDS011;65185;21.060;105.826;2022-11-20T15:56:13;94.88;;;58.53;;
76357;SDS011;65185;21.060;105.826;2022-11-20T15:58:40;103.50;;;60.78;;
76357;SDS011;65185;21.060;105.826;2022-11-20T16:01:09;98.53;;;58.90;;
76357;SDS011;65185;21.060;105.826;2022-11-20T16:03:40;89.63;;;55.83;;
76357;SDS011;65185;21.060;105.826;2022-11-20T16:06:07;99.18;;;58.35;;
76357;SDS011;65185;21.060;105.826;2022-11-20T16:08:34;103.00;;;59.55;;
76357;SDS011;65185;21.060;105.826;2022-11-20T16:11:00;107.40;;;60.83;;
76357;SDS011;65185;21.060;105.826;2022-11-20T16:13:27;103.53;;;60.35;;
76357;SDS011;65185;21.060;105.826;2022-11-20T16:16:21;102.68;;;60.00;;
76357;SDS011;65185;21.060;105.826;2022-11-20T16:18:53;104.93;;;62.47;;
76357;SDS011;65185;21.060;105.826;2022-11-20T16:21:20;103.80;;;63.55;;
76357;SDS011;65185;21.060;105.826;2022-11-20T16:23:52;103.65;;;64.07;;
76357;SDS011;65185;21.060;105.826;2022-11-20T16:26:19;106.88;;;65.68;;
76357;SDS011;65185;21.060;105.826;2022-11-20T16:28:46;107.45;;;66.07;;
76357;SDS011;65185;21.060;105.826;2022-11-20T16:31:13;102.38;;;64.70;;
76357;SDS011;65185;21.060;105.826;2022-11-20T16:33:50;111.25;;;68.75;;
76357;SDS011;65185;21.060;105.826;2022-11-20T16:36:22;100.57;;;63.03;;
76357;SDS011;65185;21.060;105.826;2022-11-20T16:38:53;113.57;;;69.22;;
76357;SDS011;65185;21.060;105.826;2022-11-20T16:41:25;117.07;;;69.20;;
76357;SDS011;65185;21.060;105.826;2022-11-20T16:43:56;109.75;;;69.93;;
76357;SDS011;65185;21.060;105.826;2022-11-20T16:46:28;109.25;;;65.90;;
76357;SDS011;65185;21.060;105.826;2022-11-20T16:48:59;106.80;;;67.07;;
76357;SDS011;65185;21.060;105.826;2022-11-20T16:51:28;103.15;;;66.55;;
76357;SDS011;65185;21.060;105.826;2022-11-20T16:53:56;111.45;;;72.38;;
76357;SDS011;65185;21.060;105.826;2022-11-20T16:56:26;116.05;;;69.82;;